Terminal Aerodrome Forecast
Issued by NWS Springfield, MO

Home | Current Version | Previous Version | Text Only | Print | Product List | Glossary On
Versions: 1 2 3 4 5 6 7 8 9 10 11 12 13 14 15 16 17 18 19 20 21
000
FTUS43 KSGF 012300
TAFSGF
TAF
KSGF 012320Z 0200/0224 19014G22KT P6SM SCT050 SCT250
     FM020200 18012KT P6SM VCTS SCT040CB BKN200
     FM020400 18014KT 5SM -TSRA BR SCT030CB OVC040
      TEMPO 0204/0208 2SM TSRA BR OVC025CB
     FM021000 20015KT P6SM VCTS SCT040CB OVC100 WS020/24040KT
     FM021300 25008KT P6SM VCSH BKN030
     FM021600 31010KT P6SM BKN030=

USA.gov is the U.S. government's official web portal to all federal, state and local government web resources and services.